sensor_id;sensor_type;location;lat;lon;timestamp;pressure;altitude;pressure_sealevel;temperature;humidity
59043;BME280;44826;51.596;5.624;2023-01-26T00:00:47;102488.84;;;-1.90;87.84
59043;BME280;44826;51.596;5.624;2023-01-26T00:03:12;102482.09;;;-1.89;88.31
59043;BME280;44826;51.596;5.624;2023-01-26T00:05:38;102482.88;;;-1.90;88.36
59043;BME280;44826;51.596;5.624;2023-01-26T00:08:03;102471.72;;;-1.92;88.17
59043;BME280;44826;51.596;5.624;2023-01-26T00:10:29;102470.13;;;-1.90;88.74
59043;BME280;44826;51.596;5.624;2023-01-26T00:12:54;102468.38;;;-1.91;87.89
59043;BME280;44826;51.596;5.624;2023-01-26T00:15:19;102470.13;;;-1.90;88.26
59043;BME280;44826;51.596;5.624;2023-01-26T00:17:45;102465.03;;;-1.90;88.72
59043;BME280;44826;51.596;5.624;2023-01-26T00:20:10;102459.91;;;-1.90;88.22
59043;BME280;44826;51.596;5.624;2023-01-26T00:22:36;102459.13;;;-1.89;87.61
59043;BME280;44826;51.596;5.624;2023-01-26T00:25:01;102462.53;;;-1.89;88.54
59043;BME280;44826;51.596;5.624;2023-01-26T00:27:26;102451.31;;;-1.92;88.37
59043;BME280;44826;51.596;5.624;2023-01-26T00:29:52;102453.06;;;-1.91;88.32
59043;BME280;44826;51.596;5.624;2023-01-26T00:32:17;102458.16;;;-1.91;88.33
59043;BME280;44826;51.596;5.624;2023-01-26T00:34:43;102457.28;;;-1.92;88.42
59043;BME280;44826;51.596;5.624;2023-01-26T00:37:08;102454.66;;;-1.93;88.41
59043;BME280;44826;51.596;5.624;2023-01-26T00:39:34;102446.19;;;-1.92;88.33
59043;BME280;44826;51.596;5.624;2023-01-26T00:41:59;102446.19;;;-1.92;88.14
59043;BME280;44826;51.596;5.624;2023-01-26T00:44:30;102441.09;;;-1.92;87.66
59043;BME280;44826;51.596;5.624;2023-01-26T00:46:56;102430.75;;;-1.95;88.24
59043;BME280;44826;51.596;5.624;2023-01-26T00:49:21;102427.38;;;-1.94;88.25
59043;BME280;44826;51.596;5.624;2023-01-26T00:51:46;102426.50;;;-1.95;88.77
59043;BME280;44826;51.596;5.624;2023-01-26T00:54:12;102435.03;;;-1.94;88.55
59043;BME280;44826;51.596;5.624;2023-01-26T00:56:37;102425.78;;;-1.92;88.60
59043;BME280;44826;51.596;5.624;2023-01-26T00:59:02;102424.03;;;-1.93;88.96
59043;BME280;44826;51.596;5.624;2023-01-26T01:01:28;102420.69;;;-1.92;89.26
59043;BME280;44826;51.596;5.624;2023-01-26T01:03:53;102419.09;;;-1.90;89.18
59043;BME280;44826;51.596;5.624;2023-01-26T01:06:18;102414.00;;;-1.90;88.71
59043;BME280;44826;51.596;5.624;2023-01-26T01:08:44;102417.41;;;-1.90;88.86
59043;BME280;44826;51.596;5.624;2023-01-26T01:11:10;102417.50;;;-1.88;89.09
59043;BME280;44826;51.596;5.624;2023-01-26T01:13:37;102410.88;;;-1.85;89.58
59043;BME280;44826;51.596;5.624;2023-01-26T01:16:07;102411.69;;;-1.86;88.68
59043;BME280;44826;51.596;5.624;2023-01-26T01:18:33;102404.81;;;-1.87;89.39
59043;BME280;44826;51.596;5.624;2023-01-26T01:20:58;102403.94;;;-1.87;88.95
59043;BME280;44826;51.596;5.624;2023-01-26T01:23:27;102406.56;;;-1.86;89.44
59043;BME280;44826;51.596;5.624;2023-01-26T01:25:57;102401.31;;;-1.89;88.61
59043;BME280;44826;51.596;5.624;2023-01-26T01:28:23;102409.84;;;-1.88;89.49
59043;BME280;44826;51.596;5.624;2023-01-26T01:30:48;102408.16;;;-1.88;89.49
59043;BME280;44826;51.596;5.624;2023-01-26T01:33:13;102411.53;;;-1.89;89.32
59043;BME280;44826;51.596;5.624;2023-01-26T01:35:39;102404.75;;;-1.88;89.49
59043;BME280;44826;51.596;5.624;2023-01-26T01:38:04;102404.75;;;-1.88;89.86
59043;BME280;44826;51.596;5.624;2023-01-26T01:40:29;102405.56;;;-1.89;89.81
59043;BME280;44826;51.596;5.624;2023-01-26T01:42:55;102405.69;;;-1.86;89.96
59043;BME280;44826;51.596;5.624;2023-01-26T01:47:55;102402.34;;;-1.85;89.31
59043;BME280;44826;51.596;5.624;2023-01-26T01:50:23;102406.56;;;-1.86;89.02
59043;BME280;44826;51.596;5.624;2023-01-26T01:52:51;102403.94;;;-1.87;90.16
59043;BME280;44826;51.596;5.624;2023-01-26T01:55:18;102399.72;;;-1.87;89.65
59043;BME280;44826;51.596;5.624;2023-01-26T01:57:51;102404.09;;;-1.84;89.81
59043;BME280;44826;51.596;5.624;2023-01-26T02:00:20;102412.69;;;-1.82;89.67
59043;BME280;44826;51.596;5.624;2023-01-26T02:02:51;102411.91;;;-1.81;89.68
59043;BME280;44826;51.596;5.624;2023-01-26T02:06:03;102401.78;;;-1.79;89.23
59043;BME280;44826;51.596;5.624;2023-01-26T02:08:36;102398.28;;;-1.81;89.70
59043;BME280;44826;51.596;5.624;2023-01-26T02:11:06;102394.03;;;-1.81;89.18
59043;BME280;44826;51.596;5.624;2023-01-26T02:13:33;102398.34;;;-1.80;89.67
59043;BME280;44826;51.596;5.624;2023-01-26T02:15:59;102395.88;;;-1.78;89.82
59043;BME280;44826;51.596;5.624;2023-01-26T02:18:25;102399.31;;;-1.78;89.74
59043;BME280;44826;51.596;5.624;2023-01-26T02:21:05;102390.06;;;-1.76;89.83
59043;BME280;44826;51.596;5.624;2023-01-26T02:23:41;102385.03;;;-1.74;89.76
59043;BME280;44826;51.596;5.624;2023-01-26T02:26:21;102385.25;;;-1.70;90.06
59043;BME280;44826;51.596;5.624;2023-01-26T02:28:48;102380.06;;;-1.71;89.88
59043;BME280;44826;51.596;5.624;2023-01-26T02:31:13;102383.50;;;-1.71;90.24
59043;BME280;44826;51.596;5.624;2023-01-26T02:33:40;102380.13;;;-1.70;90.08
59043;BME280;44826;51.596;5.624;2023-01-26T02:36:07;102377.59;;;-1.70;89.80
59043;BME280;44826;51.596;5.624;2023-01-26T02:38:41;102384.44;;;-1.69;90.02
59043;BME280;44826;51.596;5.624;2023-01-26T02:41:10;102379.34;;;-1.69;89.71
59043;BME280;44826;51.596;5.624;2023-01-26T02:43:37;102371.69;;;-1.69;89.50
59043;BME280;44826;51.596;5.624;2023-01-26T02:46:02;102364.03;;;-1.69;90.14
59043;BME280;44826;51.596;5.624;2023-01-26T02:48:28;102364.13;;;-1.67;90.66
59043;BME280;44826;51.596;5.624;2023-01-26T02:51:12;102371.84;;;-1.65;90.21
59043;BME280;44826;51.596;5.624;2023-01-26T02:53:37;102372.66;;;-1.66;89.41
59043;BME280;44826;51.596;5.624;2023-01-26T02:56:03;102367.53;;;-1.66;90.93
59043;BME280;44826;51.596;5.624;2023-01-26T02:58:28;102365.78;;;-1.68;89.91
59043;BME280;44826;51.596;5.624;2023-01-26T03:00:54;102367.63;;;-1.65;90.56
59043;BME280;44826;51.596;5.624;2023-01-26T03:03:24;102358.28;;;-1.64;90.44
59043;BME280;44826;51.596;5.624;2023-01-26T03:06:05;102365.94;;;-1.64;90.01
59043;BME280;44826;51.596;5.624;2023-01-26T03:08:31;102363.38;;;-1.64;89.75
59043;BME280;44826;51.596;5.624;2023-01-26T03:10:56;102360.84;;;-1.64;90.23
59043;BME280;44826;51.596;5.624;2023-01-26T03:13:21;102365.94;;;-1.64;90.54
59043;BME280;44826;51.596;5.624;2023-01-26T03:15:47;102361.63;;;-1.65;90.32
59043;BME280;44826;51.596;5.624;2023-01-26T03:18:17;102354.88;;;-1.65;91.09
59043;BME280;44826;51.596;5.624;2023-01-26T03:21:04;102363.53;;;-1.61;90.06
59043;BME280;44826;51.596;5.624;2023-01-26T03:23:48;102358.44;;;-1.61;90.37
59043;BME280;44826;51.596;5.624;2023-01-26T03:26:33;102356.75;;;-1.61;90.09
59043;BME280;44826;51.596;5.624;2023-01-26T03:29:17;102360.25;;;-1.59;90.03
59043;BME280;44826;51.596;5.624;2023-01-26T03:31:42;102350.94;;;-1.58;90.25
59043;BME280;44826;51.596;5.624;2023-01-26T03:34:07;102357.81;;;-1.57;90.73
59043;BME280;44826;51.596;5.624;2023-01-26T03:36:33;102356.19;;;-1.55;90.11
59043;BME280;44826;51.596;5.624;2023-01-26T03:38:58;102355.25;;;-1.57;90.31
59043;BME280;44826;51.596;5.624;2023-01-26T03:41:23;102351.81;;;-1.58;90.52
59043;BME280;44826;51.596;5.624;2023-01-26T03:44:07;102356.19;;;-1.55;91.22
59043;BME280;44826;51.596;5.624;2023-01-26T03:46:51;102357.06;;;-1.55;91.03
59043;BME280;44826;51.596;5.624;2023-01-26T03:49:35;102352.91;;;-1.53;90.63
59043;BME280;44826;51.596;5.624;2023-01-26T03:52:19;102355.63;;;-1.49;90.63
59043;BME280;44826;51.596;5.624;2023-01-26T03:55:03;102350.56;;;-1.48;90.60
59043;BME280;44826;51.596;5.624;2023-01-26T03:57:47;102341.31;;;-1.46;90.91
59043;BME280;44826;51.596;5.624;2023-01-26T04:00:13;102339.72;;;-1.44;91.06
59043;BME280;44826;51.596;5.624;2023-01-26T04:02:39;102338.97;;;-1.41;91.14
59043;BME280;44826;51.596;5.624;2023-01-26T04:05:23;102339.13;;;-1.38;90.87
59043;BME280;44826;51.596;5.624;2023-01-26T04:08:07;102337.53;;;-1.36;91.33
59043;BME280;44826;51.596;5.624;2023-01-26T04:10:50;102343.59;;;-1.34;90.70
59043;BME280;44826;51.596;5.624;2023-01-26T04:13:21;102347.00;;;-1.33;90.80
59043;BME280;44826;51.596;5.624;2023-01-26T04:16:06;102343.81;;;-1.29;91.01
59043;BME280;44826;51.596;5.624;2023-01-26T04:18:50;102348.91;;;-1.29;91.34
59043;BME280;44826;51.596;5.624;2023-01-26T04:21:35;102347.31;;;-1.27;91.07
59043;BME280;44826;51.596;5.624;2023-01-26T04:24:03;102347.47;;;-1.24;91.05
59043;BME280;44826;51.596;5.624;2023-01-26T04:26:34;102346.66;;;-1.23;91.33
59043;BME280;44826;51.596;5.624;2023-01-26T04:29:07;102345.84;;;-1.22;91.39
59043;BME280;44826;51.596;5.624;2023-01-26T04:31:33;102341.69;;;-1.20;91.33
59043;BME280;44826;51.596;5.624;2023-01-26T04:33:59;102346.88;;;-1.18;91.54
59043;BME280;44826;51.596;5.624;2023-01-26T04:36:25;102347.72;;;-1.18;91.57
59043;BME280;44826;51.596;5.624;2023-01-26T04:38:51;102347.00;;;-1.15;92.01
59043;BME280;44826;51.596;5.624;2023-01-26T04:41:16;102343.66;;;-1.14;91.61
59043;BME280;44826;51.596;5.624;2023-01-26T04:43:41;102343.72;;;-1.13;91.41
59043;BME280;44826;51.596;5.624;2023-01-26T04:46:07;102347.22;;;-1.11;91.76
59043;BME280;44826;51.596;5.624;2023-01-26T04:48:33;102346.41;;;-1.10;91.62
59043;BME280;44826;51.596;5.624;2023-01-26T04:51:01;102337.97;;;-1.09;91.81
59043;BME280;44826;51.596;5.624;2023-01-26T04:53:27;102345.69;;;-1.07;91.32
59043;BME280;44826;51.596;5.624;2023-01-26T04:55:53;102347.53;;;-1.04;91.78
59043;BME280;44826;51.596;5.624;2023-01-26T04:58:19;102346.72;;;-1.03;92.12
59043;BME280;44826;51.596;5.624;2023-01-26T05:00:52;102347.63;;;-1.01;91.62
59043;BME280;44826;51.596;5.624;2023-01-26T05:03:18;102339.13;;;-1.02;92.11
59043;BME280;44826;51.596;5.624;2023-01-26T05:05:44;102348.59;;;-0.99;92.11
59043;BME280;44826;51.596;5.624;2023-01-26T05:08:09;102343.47;;;-0.99;91.52
59043;BME280;44826;51.596;5.624;2023-01-26T05:10:34;102344.38;;;-0.99;91.71
59043;BME280;44826;51.596;5.624;2023-01-26T05:13:00;102340.28;;;-0.95;91.87
59043;BME280;44826;51.596;5.624;2023-01-26T05:15:25;102336.06;;;-0.95;91.98
59043;BME280;44826;51.596;5.624;2023-01-26T05:17:50;102338.66;;;-0.93;92.18
59043;BME280;44826;51.596;5.624;2023-01-26T05:20:16;102335.31;;;-0.92;92.38
59043;BME280;44826;51.596;5.624;2023-01-26T05:22:41;102332.75;;;-0.92;92.06
59043;BME280;44826;51.596;5.624;2023-01-26T05:25:08;102341.38;;;-0.90;91.55
59043;BME280;44826;51.596;5.624;2023-01-26T05:27:33;102339.63;;;-0.91;92.27
59043;BME280;44826;51.596;5.624;2023-01-26T05:29:58;102338.88;;;-0.88;92.21
59043;BME280;44826;51.596;5.624;2023-01-26T05:32:28;102346.63;;;-0.87;92.39
59043;BME280;44826;51.596;5.624;2023-01-26T05:34:53;102333.69;;;-0.90;92.22
59043;BME280;44826;51.596;5.624;2023-01-26T05:37:19;102333.69;;;-0.90;91.78
59043;BME280;44826;51.596;5.624;2023-01-26T05:39:44;102331.94;;;-0.91;91.74
59043;BME280;44826;51.596;5.624;2023-01-26T05:42:10;102345.66;;;-0.89;92.24
59043;BME280;44826;51.596;5.624;2023-01-26T05:44:35;102341.56;;;-0.85;91.87
59043;BME280;44826;51.596;5.624;2023-01-26T05:47:00;102335.59;;;-0.86;91.81
59043;BME280;44826;51.596;5.624;2023-01-26T05:49:25;102346.81;;;-0.82;92.25
59043;BME280;44826;51.596;5.624;2023-01-26T05:51:51;102335.72;;;-0.83;92.25
59043;BME280;44826;51.596;5.624;2023-01-26T05:54:16;102338.41;;;-0.80;92.17
59043;BME280;44826;51.596;5.624;2023-01-26T05:56:41;102342.72;;;-0.79;91.89
59043;BME280;44826;51.596;5.624;2023-01-26T05:59:07;102341.91;;;-0.78;92.16
59043;BME280;44826;51.596;5.624;2023-01-26T06:01:32;102340.31;;;-0.75;92.48
59043;BME280;44826;51.596;5.624;2023-01-26T06:03:57;102340.38;;;-0.74;92.46
59043;BME280;44826;51.596;5.624;2023-01-26T06:06:23;102342.06;;;-0.74;91.83
59043;BME280;44826;51.596;5.624;2023-01-26T06:08:48;102343.88;;;-0.72;92.09
59043;BME280;44826;51.596;5.624;2023-01-26T06:11:13;102348.97;;;-0.72;92.30
59043;BME280;44826;51.596;5.624;2023-01-26T06:13:38;102355.84;;;-0.71;91.47
59043;BME280;44826;51.596;5.624;2023-01-26T06:16:04;102348.13;;;-0.72;92.12
59043;BME280;44826;51.596;5.624;2023-01-26T06:18:29;102346.38;;;-0.73;91.56
59043;BME280;44826;51.596;5.624;2023-01-26T06:20:58;102354.03;;;-0.73;91.69
59043;BME280;44826;51.596;5.624;2023-01-26T06:23:24;102353.22;;;-0.72;92.26
59043;BME280;44826;51.596;5.624;2023-01-26T06:25:50;102354.97;;;-0.71;91.95
59043;BME280;44826;51.596;5.624;2023-01-26T06:28:16;102348.25;;;-0.69;92.15
59043;BME280;44826;51.596;5.624;2023-01-26T06:30:42;102360.22;;;-0.68;92.28
59043;BME280;44826;51.596;5.624;2023-01-26T06:33:07;102352.69;;;-0.65;92.54
59043;BME280;44826;51.596;5.624;2023-01-26T06:35:32;102341.66;;;-0.64;91.94
59043;BME280;44826;51.596;5.624;2023-01-26T06:38:00;102351.06;;;-0.63;91.88
59043;BME280;44826;51.596;5.624;2023-01-26T06:40:25;102351.88;;;-0.64;92.16
59043;BME280;44826;51.596;5.624;2023-01-26T06:42:51;102353.63;;;-0.63;91.79
59043;BME280;44826;51.596;5.624;2023-01-26T06:45:16;102357.78;;;-0.65;91.55
59043;BME280;44826;51.596;5.624;2023-01-26T06:47:48;102366.34;;;-0.65;91.89
59043;BME280;44826;51.596;5.624;2023-01-26T06:50:17;102361.16;;;-0.66;91.44
59043;BME280;44826;51.596;5.624;2023-01-26T06:52:45;102364.59;;;-0.66;91.44
59043;BME280;44826;51.596;5.624;2023-01-26T06:55:35;102365.47;;;-0.65;91.85
59043;BME280;44826;51.596;5.624;2023-01-26T06:58:01;102364.66;;;-0.64;91.75
59043;BME280;44826;51.596;5.624;2023-01-26T07:00:26;102364.66;;;-0.64;92.31
59043;BME280;44826;51.596;5.624;2023-01-26T07:02:52;102359.53;;;-0.64;92.09
59043;BME280;44826;51.596;5.624;2023-01-26T07:05:17;102363.84;;;-0.63;91.91
59043;BME280;44826;51.596;5.624;2023-01-26T07:07:42;102367.22;;;-0.64;91.79
59043;BME280;44826;51.596;5.624;2023-01-26T07:10:08;102364.66;;;-0.64;92.18
59043;BME280;44826;51.596;5.624;2023-01-26T07:12:38;102364.59;;;-0.66;92.53
59043;BME280;44826;51.596;5.624;2023-01-26T07:15:04;102373.13;;;-0.65;92.13
59043;BME280;44826;51.596;5.624;2023-01-26T07:17:30;102365.47;;;-0.65;91.94
59043;BME280;44826;51.596;5.624;2023-01-26T07:19:55;102368.91;;;-0.65;91.86
59043;BME280;44826;51.596;5.624;2023-01-26T07:22:20;102365.47;;;-0.65;92.33
59043;BME280;44826;51.596;5.624;2023-01-26T07:24:46;102380.78;;;-0.65;92.01
59043;BME280;44826;51.596;5.624;2023-01-26T07:27:11;102381.59;;;-0.66;92.02
59043;BME280;44826;51.596;5.624;2023-01-26T07:29:36;102386.59;;;-0.69;91.74
59043;BME280;44826;51.596;5.624;2023-01-26T07:32:02;102378.94;;;-0.69;91.33
59043;BME280;44826;51.596;5.624;2023-01-26T07:34:27;102381.41;;;-0.71;91.85
59043;BME280;44826;51.596;5.624;2023-01-26T07:36:52;102384.03;;;-0.69;92.31
59043;BME280;44826;51.596;5.624;2023-01-26T07:39:17;102379.72;;;-0.70;92.62
59043;BME280;44826;51.596;5.624;2023-01-26T07:41:43;102382.34;;;-0.69;92.32
59043;BME280;44826;51.596;5.624;2023-01-26T07:44:09;102384.16;;;-0.66;92.14
59043;BME280;44826;51.596;5.624;2023-01-26T07:46:34;102384.16;;;-0.66;92.49
59043;BME280;44826;51.596;5.624;2023-01-26T07:48:59;102387.66;;;-0.64;92.20
59043;BME280;44826;51.596;5.624;2023-01-26T07:51:24;102387.81;;;-0.61;93.12
59043;BME280;44826;51.596;5.624;2023-01-26T07:53:50;102387.94;;;-0.58;92.35
59043;BME280;44826;51.596;5.624;2023-01-26T07:56:16;102394.81;;;-0.57;93.10
59043;BME280;44826;51.596;5.624;2023-01-26T07:58:48;102393.22;;;-0.55;92.84
59043;BME280;44826;51.596;5.624;2023-01-26T08:01:14;102393.22;;;-0.55;92.28
59043;BME280;44826;51.596;5.624;2023-01-26T08:03:40;102391.59;;;-0.53;92.86
59043;BME280;44826;51.596;5.624;2023-01-26T08:06:06;102394.16;;;-0.53;92.49
59043;BME280;44826;51.596;5.624;2023-01-26T08:08:32;102400.13;;;-0.52;92.61
59043;BME280;44826;51.596;5.624;2023-01-26T08:10:58;102400.13;;;-0.52;93.08
59043;BME280;44826;51.596;5.624;2023-01-26T08:13:28;102405.38;;;-0.49;92.85
59043;BME280;44826;51.596;5.624;2023-01-26T08:15:53;102398.56;;;-0.49;92.69
59043;BME280;44826;51.596;5.624;2023-01-26T08:18:19;102408.00;;;-0.48;92.93
59043;BME280;44826;51.596;5.624;2023-01-26T08:20:52;102402.88;;;-0.48;93.36
59043;BME280;44826;51.596;5.624;2023-01-26T08:23:18;102409.75;;;-0.47;92.78
59043;BME280;44826;51.596;5.624;2023-01-26T08:25:43;102406.25;;;-0.49;92.73
59043;BME280;44826;51.596;5.624;2023-01-26T08:28:09;102407.06;;;-0.50;93.14
59043;BME280;44826;51.596;5.624;2023-01-26T08:30:34;102412.25;;;-0.48;93.16
59043;BME280;44826;51.596;5.624;2023-01-26T08:33:01;102408.81;;;-0.49;93.12
59043;BME280;44826;51.596;5.624;2023-01-26T08:35:26;102411.44;;;-0.47;92.93
59043;BME280;44826;51.596;5.624;2023-01-26T08:37:52;102408.94;;;-0.46;93.09
59043;BME280;44826;51.596;5.624;2023-01-26T08:40:17;102411.66;;;-0.42;92.70
59043;BME280;44826;51.596;5.624;2023-01-26T08:42:42;102417.72;;;-0.40;93.14
59043;BME280;44826;51.596;5.624;2023-01-26T08:45:08;102410.91;;;-0.40;92.63
59043;BME280;44826;51.596;5.624;2023-01-26T08:47:33;102410.09;;;-0.39;93.05
59043;BME280;44826;51.596;5.624;2023-01-26T08:50:00;102420.41;;;-0.37;93.63
59043;BME280;44826;51.596;5.624;2023-01-26T08:52:25;102414.50;;;-0.36;93.53
59043;BME280;44826;51.596;5.624;2023-01-26T08:54:51;102417.97;;;-0.34;93.66
59043;BME280;44826;51.596;5.624;2023-01-26T08:57:16;102420.53;;;-0.34;93.14
59043;BME280;44826;51.596;5.624;2023-01-26T08:59:41;102421.47;;;-0.32;93.27
59043;BME280;44826;51.596;5.624;2023-01-26T09:02:08;102421.47;;;-0.32;93.23
59043;BME280;44826;51.596;5.624;2023-01-26T09:04:34;102419.16;;;-0.27;93.94
59043;BME280;44826;51.596;5.624;2023-01-26T09:06:59;102424.38;;;-0.24;93.14
59043;BME280;44826;51.596;5.624;2023-01-26T09:09:25;102419.34;;;-0.23;93.27
59043;BME280;44826;51.596;5.624;2023-01-26T09:11:54;102420.28;;;-0.21;93.24
59043;BME280;44826;51.596;5.624;2023-01-26T09:14:19;102415.19;;;-0.21;93.45
59043;BME280;44826;51.596;5.624;2023-01-26T09:16:44;102421.34;;;-0.16;93.39
59043;BME280;44826;51.596;5.624;2023-01-26T09:19:09;102418.13;;;-0.11;93.81
59043;BME280;44826;51.596;5.624;2023-01-26T09:21:35;102427.69;;;-0.07;93.80
59043;BME280;44826;51.596;5.624;2023-01-26T09:24:00;102427.06;;;-0.02;93.93
59043;BME280;44826;51.596;5.624;2023-01-26T09:26:28;102416.09;;;0.01;93.78
59043;BME280;44826;51.596;5.624;2023-01-26T09:28:53;102418.94;;;0.07;93.39
59043;BME280;44826;51.596;5.624;2023-01-26T09:31:18;102417.38;;;0.11;93.49
59043;BME280;44826;51.596;5.624;2023-01-26T09:33:44;102420.00;;;0.12;93.34
59043;BME280;44826;51.596;5.624;2023-01-26T09:36:10;102420.06;;;0.14;93.46
59043;BME280;44826;51.596;5.624;2023-01-26T09:38:35;102429.50;;;0.15;93.56
59043;BME280;44826;51.596;5.624;2023-01-26T09:44:09;102438.91;;;0.16;92.99
59043;BME280;44826;51.596;5.624;2023-01-26T09:49:17;102428.50;;;0.11;92.77
59043;BME280;44826;51.596;5.624;2023-01-26T09:51:57;102420.00;;;0.12;93.57
59043;BME280;44826;51.596;5.624;2023-01-26T09:54:31;102431.09;;;0.13;93.73
59043;BME280;44826;51.596;5.624;2023-01-26T09:57:00;102428.50;;;0.11;93.82
59043;BME280;44826;51.596;5.624;2023-01-26T09:59:31;102430.25;;;0.12;93.96
59043;BME280;44826;51.596;5.624;2023-01-26T10:02:24;102437.25;;;0.17;94.15
59043;BME280;44826;51.596;5.624;2023-01-26T10:04:56;102431.38;;;0.19;94.29
59043;BME280;44826;51.596;5.624;2023-01-26T10:07:22;102436.78;;;0.25;94.47
59043;BME280;44826;51.596;5.624;2023-01-26T10:09:50;102434.41;;;0.30;93.95
59043;BME280;44826;51.596;5.624;2023-01-26T10:12:29;102430.22;;;0.32;94.57
59043;BME280;44826;51.596;5.624;2023-01-26T10:17:46;102420.31;;;0.40;94.48
59043;BME280;44826;51.596;5.624;2023-01-26T10:20:30;102424.72;;;0.44;94.24
59043;BME280;44826;51.596;5.624;2023-01-26T10:23:01;102424.84;;;0.47;94.77
59043;BME280;44826;51.596;5.624;2023-01-26T10:25:33;102419.91;;;0.52;93.89
59043;BME280;44826;51.596;5.624;2023-01-26T10:28:01;102418.44;;;0.57;94.55
59043;BME280;44826;51.596;5.624;2023-01-26T10:30:26;102421.16;;;0.62;94.35
59043;BME280;44826;51.596;5.624;2023-01-26T10:32:51;102420.44;;;0.64;94.85
59043;BME280;44826;51.596;5.624;2023-01-26T10:35:21;102422.31;;;0.68;94.51
59043;BME280;44826;51.596;5.624;2023-01-26T10:37:48;102426.69;;;0.71;94.36
59043;BME280;44826;51.596;5.624;2023-01-26T10:40:13;102419.06;;;0.72;94.39
59043;BME280;44826;51.596;5.624;2023-01-26T10:42:39;102423.44;;;0.75;94.41
59043;BME280;44826;51.596;5.624;2023-01-26T10:45:30;102426.06;;;0.77;94.56
59043;BME280;44826;51.596;5.624;2023-01-26T10:50:40;102427.94;;;0.81;94.76
59043;BME280;44826;51.596;5.624;2023-01-26T10:53:05;102426.31;;;0.83;94.85
59043;BME280;44826;51.596;5.624;2023-01-26T10:55:32;102432.38;;;0.85;95.00
59043;BME280;44826;51.596;5.624;2023-01-26T10:57:58;102429.91;;;0.88;95.42
59043;BME280;44826;51.596;5.624;2023-01-26T11:03:15;102423.53;;;0.99;95.90
59043;BME280;44826;51.596;5.624;2023-01-26T11:05:41;102423.75;;;1.05;95.98
59043;BME280;44826;51.596;5.624;2023-01-26T11:08:44;102422.28;;;1.11;96.01
59043;BME280;44826;51.596;5.624;2023-01-26T11:11:25;102426.63;;;1.13;94.64
59043;BME280;44826;51.596;5.624;2023-01-26T11:16:34;102425.91;;;1.16;94.96
59043;BME280;44826;51.596;5.624;2023-01-26T11:19:02;102420.03;;;1.20;95.64
59043;BME280;44826;51.596;5.624;2023-01-26T11:21:45;102422.81;;;1.25;95.20
59043;BME280;44826;51.596;5.624;2023-01-26T11:24:20;102421.41;;;1.33;95.05
59043;BME280;44826;51.596;5.624;2023-01-26T11:27:09;102418.19;;;1.39;95.43
59043;BME280;44826;51.596;5.624;2023-01-26T11:30:04;102417.66;;;1.47;96.18
59043;BME280;44826;51.596;5.624;2023-01-26T11:32:55;102423.03;;;1.54;96.02
59043;BME280;44826;51.596;5.624;2023-01-26T11:35:28;102418.88;;;1.57;94.37
59043;BME280;44826;51.596;5.624;2023-01-26T11:38:26;102416.50;;;1.62;95.24
59043;BME280;44826;51.596;5.624;2023-01-26T11:41:10;102415.78;;;1.66;95.18
59043;BME280;44826;51.596;5.624;2023-01-26T11:46:57;102412.47;;;1.69;95.77
59043;BME280;44826;51.596;5.624;2023-01-26T11:49:40;102409.09;;;1.70;96.09
59043;BME280;44826;51.596;5.624;2023-01-26T11:52:40;102406.84;;;1.79;96.17
59043;BME280;44826;51.596;5.624;2023-01-26T11:56:01;102410.66;;;1.90;96.18
59043;BME280;44826;51.596;5.624;2023-01-26T11:58:35;102399.91;;;2.01;96.69
59043;BME280;44826;51.596;5.624;2023-01-26T12:01:08;102396.84;;;2.11;97.20
59043;BME280;44826;51.596;5.624;2023-01-26T12:03:47;102383.44;;;2.20;97.63
59043;BME280;44826;51.596;5.624;2023-01-26T12:08:58;102396.03;;;2.38;98.25
59043;BME280;44826;51.596;5.624;2023-01-26T12:11:29;102389.47;;;2.48;97.72
59043;BME280;44826;51.596;5.624;2023-01-26T12:19:18;102380.00;;;2.72;98.91
59043;BME280;44826;51.596;5.624;2023-01-26T12:21:48;102375.94;;;2.79;98.44
59043;BME280;44826;51.596;5.624;2023-01-26T12:24:18;102372.69;;;2.85;99.03
59043;BME280;44826;51.596;5.624;2023-01-26T12:26:48;102370.44;;;2.96;98.84
59043;BME280;44826;51.596;5.624;2023-01-26T12:29:19;102365.50;;;3.02;99.26
59043;BME280;44826;51.596;5.624;2023-01-26T12:31:54;102360.63;;;3.11;99.64
59043;BME280;44826;51.596;5.624;2023-01-26T12:34:30;102358.34;;;3.21;100.00
59043;BME280;44826;51.596;5.624;2023-01-26T12:40:13;102351.19;;;3.41;98.98
59043;BME280;44826;51.596;5.624;2023-01-26T12:42:41;102343.75;;;3.50;99.43
59043;BME280;44826;51.596;5.624;2023-01-26T12:45:20;102338.03;;;3.62;99.71
59043;BME280;44826;51.596;5.624;2023-01-26T12:47:51;102331.50;;;3.73;100.00
59043;BME280;44826;51.596;5.624;2023-01-26T12:52:56;102333.03;;;4.00;99.44
59043;BME280;44826;51.596;5.624;2023-01-26T12:55:40;102329.84;;;4.10;99.26
59043;BME280;44826;51.596;5.624;2023-01-26T12:58:21;102330.94;;;4.19;98.41
59043;BME280;44826;51.596;5.624;2023-01-26T13:01:01;102328.63;;;4.30;98.37
59043;BME280;44826;51.596;5.624;2023-01-26T13:03:32;102324.56;;;4.39;98.41
59043;BME280;44826;51.596;5.624;2023-01-26T13:11:03;102323.19;;;4.54;97.68
59043;BME280;44826;51.596;5.624;2023-01-26T13:18:56;102319.13;;;4.65;97.64
59043;BME280;44826;51.596;5.624;2023-01-26T13:26:54;102314.94;;;4.69;97.00
59043;BME280;44826;51.596;5.624;2023-01-26T13:31:55;102306.38;;;4.71;97.80
59043;BME280;44826;51.596;5.624;2023-01-26T13:34:25;102310.00;;;4.80;98.10
59043;BME280;44826;51.596;5.624;2023-01-26T13:36:55;102302.41;;;4.88;98.13
59043;BME280;44826;51.596;5.624;2023-01-26T13:39:29;102308.53;;;4.91;97.41
59043;BME280;44826;51.596;5.624;2023-01-26T13:41:55;102305.00;;;4.88;97.06
59043;BME280;44826;51.596;5.624;2023-01-26T13:44:27;102297.25;;;4.88;97.65
59043;BME280;44826;51.596;5.624;2023-01-26T13:46:58;102297.47;;;4.97;97.37
59043;BME280;44826;51.596;5.624;2023-01-26T13:49:27;102301.97;;;5.07;96.75
59043;BME280;44826;51.596;5.624;2023-01-26T13:52:01;102299.66;;;5.20;97.04
59043;BME280;44826;51.596;5.624;2023-01-26T13:54:27;102299.03;;;5.31;97.05
59043;BME280;44826;51.596;5.624;2023-01-26T13:57:04;102299.31;;;5.47;96.35
59043;BME280;44826;51.596;5.624;2023-01-26T13:59:30;102303.06;;;5.65;95.96